Time;durP1;ratioP1;P1;durP2;ratioP2;P2;SDS_P1;SDS_P2;PMS_P1;PMS_P2;Temp;Humidity;BMP_temperature;BMP_pressure;BME280_temperature;BME280_humidity;BME280_pressure;Samples;Min_cycle;Max_cycle;Signal;HPM_P1;HPM_P2
2021/12/01 00:00:21;;;;;;;5.47;2.70;;;;;;;4.64;76.92;99407.22;5474766;32;35412;-64
2021/12/01 00:03:23;;;;;;;5.90;2.70;;;;;;;4.71;76.55;99416.56;5490622;32;34786;-65
2021/12/01 00:06:25;;;;;;;4.67;2.37;;;;;;;4.75;77.00;99420.75;5491430;32;35755;-65
2021/12/01 00:09:27;;;;;;;4.77;2.20;;;;;;;4.84;75.53;99420.47;5476744;32;33939;-68
2021/12/01 00:12:30;;;;;;;7.00;2.80;;;;;;;4.84;76.04;99409.22;5461436;32;34109;-65
2021/12/01 00:15:32;;;;;;;5.93;2.40;;;;;;;5.88;72.36;99413.56;5480619;32;33954;-67
2021/12/01 00:18:35;;;;;;;3.57;2.00;;;;;;;4.86;74.87;99423.88;5483234;32;33901;-64
2021/12/01 00:21:37;;;;;;;3.40;1.70;;;;;;;5.46;72.28;99416.72;5477063;32;35457;-67
2021/12/01 00:24:39;;;;;;;3.73;1.80;;;;;;;5.27;72.64;99413.87;5497598;32;33998;-67
2021/12/01 00:27:46;;;;;;;3.30;1.47;;;;;;;5.57;70.46;99421.59;5472492;32;33958;-64
2021/12/01 00:30:48;;;;;;;2.90;1.70;;;;;;;5.05;72.94;99424.16;5476759;32;33857;-65
2021/12/01 00:33:51;;;;;;;4.30;1.80;;;;;;;5.12;71.80;99403.97;5485370;32;33946;-64
2021/12/01 00:36:53;;;;;;;2.77;1.53;;;;;;;4.79;72.90;99427.56;5494932;32;35004;-65
2021/12/01 00:39:55;;;;;;;3.47;1.60;;;;;;;5.15;71.22;99440.31;5469846;32;34015;-66
2021/12/01 00:42:57;;;;;;;2.50;1.50;;;;;;;5.33;70.06;99423.25;5493132;32;35168;-64
2021/12/01 00:46:10;;;;;;;6.13;2.73;;;;;;;5.72;68.59;99434.09;5465682;32;34821;-64
2021/12/01 00:49:12;;;;;;;3.60;1.40;;;;;;;5.31;69.50;99436.34;5476230;32;34858;-64
2021/12/01 00:52:14;;;;;;;4.23;1.83;;;;;;;5.05;70.24;99426.75;5497268;32;33982;-68
2021/12/01 00:55:17;;;;;;;2.90;1.80;;;;;;;5.15;69.98;99440.31;5482536;32;35028;-67
2021/12/01 00:58:19;;;;;;;4.10;1.90;;;;;;;5.54;68.78;99437.31;5464356;32;35149;-68
2021/12/01 01:01:21;;;;;;;2.27;1.40;;;;;;;5.31;69.84;99445.91;5501157;32;33985;-67
2021/12/01 01:04:24;;;;;;;3.53;1.70;;;;;;;5.81;67.82;99435.53;5468850;32;33893;-65
2021/12/01 01:07:27;;;;;;;2.27;1.30;;;;;;;5.61;68.51;99446.66;5483188;32;33844;-68
2021/12/01 01:10:34;;;;;;;2.30;1.47;;;;;;;6.11;66.04;99452.72;5484544;32;33967;-65
2021/12/01 01:16:58;;;;;;;2.67;1.53;;;;;;;6.11;66.69;99460.56;5506394;32;34974;-69
2021/12/01 01:20:00;;;;;;;3.73;1.40;;;;;;;5.54;68.30;99461.66;5488964;32;34414;-68
2021/12/01 01:23:03;;;;;;;3.50;1.67;;;;;;;5.91;66.77;99458.66;5498630;32;33925;-65
2021/12/01 01:26:08;;;;;;;3.50;1.47;;;;;;;5.27;69.59;99470.34;5490323;32;33093;-64
2021/12/01 01:29:10;;;;;;;3.00;1.57;;;;;;;6.12;66.41;99462.28;5475309;32;33948;-65
2021/12/01 01:32:12;;;;;;;4.93;1.83;;;;;;;6.02;66.25;99476.53;5493057;32;34180;-67
2021/12/01 01:35:14;;;;;;;2.80;1.50;;;;;;;5.70;67.91;99478.47;5492791;32;32839;-65
2021/12/01 01:38:17;;;;;;;2.87;1.60;;;;;;;5.96;67.13;99474.16;5496660;32;33980;-65
2021/12/01 01:41:20;;;;;;;4.00;1.73;;;;;;;6.40;65.26;99471.72;5493965;32;34034;-65
2021/12/01 01:44:22;;;;;;;3.57;1.40;;;;;;;6.27;65.55;99466.09;5497842;32;34055;-68
2021/12/01 01:47:25;;;;;;;2.93;1.70;;;;;;;6.17;66.89;99468.16;5472224;32;34120;-65
2021/12/01 01:50:35;;;;;;;3.30;1.63;;;;;;;6.11;66.84;99470.16;5489619;32;35354;-67
2021/12/01 01:53:38;;;;;;;3.13;1.50;;;;;;;5.87;67.21;99475.31;5482315;32;35243;-64
2021/12/01 01:56:42;;;;;;;2.77;1.70;;;;;;;6.12;67.23;99480.56;5479591;32;33022;-64
2021/12/01 01:59:44;;;;;;;4.25;2.10;;;;;;;6.26;66.52;99480.06;5481338;32;33114;-64
2021/12/01 02:02:47;;;;;;;1.83;1.23;;;;;;;6.47;65.56;99483.63;5471129;32;34252;-69
2021/12/01 02:05:51;;;;;;;3.03;1.70;;;;;;;5.86;67.71;99478.81;5480675;32;33986;-65
2021/12/01 02:08:57;;;;;;;3.97;1.60;;;;;;;6.20;65.87;99490.72;5493001;32;35802;-64
2021/12/01 02:12:01;;;;;;;3.60;1.73;;;;;;;6.11;66.96;99491.00;5495599;32;34027;-66
2021/12/01 02:15:03;;;;;;;2.83;1.30;;;;;;;6.93;63.89;99485.38;5496079;32;35675;-67
2021/12/01 02:18:06;;;;;;;1.90;1.30;;;;;;;6.57;64.38;99485.00;5462689;32;34877;-64
2021/12/01 02:21:12;;;;;;;2.63;1.40;;;;;;;6.19;66.05;99478.56;5496483;32;34117;-68
2021/12/01 02:24:15;;;;;;;3.40;1.20;;;;;;;6.04;66.16;99476.47;5491270;32;33857;-64
2021/12/01 02:27:18;;;;;;;2.28;1.30;;;;;;;6.34;64.81;99482.37;5495941;32;33968;-67
2021/12/01 02:30:21;;;;;;;2.30;1.20;;;;;;;5.86;67.34;99486.62;5497342;32;35137;-66
2021/12/01 02:33:24;;;;;;;2.22;1.08;;;;;;;6.17;66.44;99481.22;5480814;32;33225;-64
2021/12/01 02:36:26;;;;;;;1.70;1.00;;;;;;;6.02;65.82;99492.19;5469455;32;33236;-67
2021/12/01 02:39:28;;;;;;;1.60;1.03;;;;;;;6.83;63.00;99476.19;5463560;32;35722;-68
2021/12/01 02:42:31;;;;;;;0.93;0.83;;;;;;;6.30;65.07;99484.25;5476500;32;34023;-64
2021/12/01 02:45:33;;;;;;;1.10;0.97;;;;;;;6.71;63.39;99492.31;5471617;32;33920;-65
2021/12/01 02:48:41;;;;;;;1.47;0.93;;;;;;;6.64;63.35;99488.25;5477610;32;34227;-69
2021/12/01 02:51:44;;;;;;;1.30;0.93;;;;;;;6.45;64.61;99483.69;5480690;32;34868;-65
2021/12/01 02:54:46;;;;;;;1.17;0.77;;;;;;;6.92;62.93;99480.22;5491217;32;34122;-65
2021/12/01 02:57:50;;;;;;;0.80;0.80;;;;;;;6.75;62.76;99475.63;5488743;32;33872;-65
2021/12/01 03:00:55;;;;;;;0.90;0.60;;;;;;;6.24;65.22;99474.87;5481890;32;34001;-65
2021/12/01 03:03:59;;;;;;;0.80;0.77;;;;;;;6.36;64.38;99477.94;5489188;32;33821;-68
2021/12/01 03:07:03;;;;;;;0.73;0.73;;;;;;;6.67;63.45;99481.13;5480754;32;34059;-65
2021/12/01 03:10:05;;;;;;;0.77;0.65;;;;;;;6.40;64.59;99496.06;5494075;32;35709;-67
2021/12/01 03:13:08;;;;;;;0.97;0.70;;;;;;;6.34;64.96;99493.66;5500225;32;35159;-65
2021/12/01 03:16:10;;;;;;;1.10;0.70;;;;;;;6.40;64.33;99492.59;5463811;32;34106;-67
2021/12/01 03:19:13;;;;;;;0.80;0.60;;;;;;;6.26;64.76;99489.66;5483476;32;34045;-65
2021/12/01 03:22:15;;;;;;;0.80;0.63;;;;;;;6.42;63.95;99482.94;5497590;32;34354;-65
2021/12/01 03:25:18;;;;;;;2.40;0.70;;;;;;;5.93;65.81;99500.34;5493913;32;34053;-64
2021/12/01 03:28:21;;;;;;;1.73;0.90;;;;;;;6.82;63.57;99500.59;5480938;32;34781;-65
2021/12/01 03:31:23;;;;;;;0.68;0.68;;;;;;;6.26;64.95;99511.38;5493151;32;33957;-67
2021/12/01 03:34:26;;;;;;;0.70;0.70;;;;;;;6.29;64.84;99526.91;5498044;32;34123;-64
2021/12/01 03:37:28;;;;;;;0.60;0.50;;;;;;;6.53;64.21;99516.50;5482702;32;321550;-67
2021/12/01 03:40:31;;;;;;;0.80;0.73;;;;;;;7.03;61.69;99515.47;5482575;32;34829;-65
2021/12/01 03:43:33;;;;;;;3.67;0.90;;;;;;;6.39;63.78;99510.03;5479109;32;33317;-64
2021/12/01 03:46:35;;;;;;;0.60;0.60;;;;;;;6.47;63.64;99517.56;5476900;32;34144;-66
2021/12/01 03:49:38;;;;;;;0.60;0.60;;;;;;;6.30;64.75;99523.38;5499846;32;34898;-68
2021/12/01 03:52:40;;;;;;;0.63;0.50;;;;;;;6.10;64.68;99518.00;5480411;32;33987;-65
2021/12/01 03:55:43;;;;;;;1.03;0.87;;;;;;;6.43;64.06;99519.44;5497952;32;34555;-64
2021/12/01 03:58:46;;;;;;;0.93;0.80;;;;;;;6.46;63.94;99516.72;5491162;32;34039;-68
2021/12/01 04:01:48;;;;;;;0.62;0.62;;;;;;;6.45;64.08;99512.41;5498867;32;32865;-65
2021/12/01 04:04:51;;;;;;;1.53;1.00;;;;;;;6.43;63.53;99508.13;5490191;32;34116;-66
2021/12/01 04:07:54;;;;;;;2.93;0.90;;;;;;;6.93;62.89;99508.88;5492861;32;33997;-68
2021/12/01 04:10:56;;;;;;;0.98;0.77;;;;;;;6.52;63.55;99518.25;5483591;32;34400;-69
2021/12/01 04:13:58;;;;;;;1.70;1.43;;;;;;;6.76;63.85;99522.59;5492378;32;34703;-67
2021/12/01 04:17:01;;;;;;;0.70;0.70;;;;;;;6.97;62.16;99534.00;5498576;32;33947;-64
2021/12/01 04:20:03;;;;;;;3.17;1.13;;;;;;;6.43;63.11;99544.69;5475844;32;33880;-67
2021/12/01 04:23:06;;;;;;;1.20;0.87;;;;;;;6.23;64.76;99553.22;5498813;32;34148;-68
2021/12/01 04:26:13;;;;;;;2.60;1.37;;;;;;;6.70;63.96;99554.16;5490088;32;35160;-64
2021/12/01 04:29:15;;;;;;;1.87;1.03;;;;;;;6.87;63.10;99556.12;5476976;32;35030;-65
2021/12/01 04:32:17;;;;;;;1.33;1.00;;;;;;;7.22;61.25;99553.97;5507793;32;35142;-65
2021/12/01 04:35:23;;;;;;;1.00;0.90;;;;;;;8.35;58.25;99550.19;5486658;32;35332;-67
2021/12/01 04:38:25;;;;;;;1.37;0.90;;;;;;;6.60;63.25;99558.00;5498529;32;33869;-67
2021/12/01 04:41:30;;;;;;;1.53;1.00;;;;;;;7.55;59.83;99555.25;5480515;32;34036;-66
2021/12/01 04:44:36;;;;;;;2.60;1.23;;;;;;;6.34;64.39;99576.34;5499954;32;33961;-65
2021/12/01 04:47:41;;;;;;;0.90;0.90;;;;;;;7.78;60.12;99577.00;5477094;32;34875;-64
2021/12/01 04:50:43;;;;;;;2.57;1.33;;;;;;;6.62;63.23;99577.06;5477322;32;35977;-64
2021/12/01 04:53:46;;;;;;;2.00;1.30;;;;;;;6.72;63.16;99580.22;5482770;32;35958;-65
2021/12/01 04:56:49;;;;;;;2.10;1.43;;;;;;;6.87;63.02;99586.62;5481647;32;34079;-65
2021/12/01 04:59:51;;;;;;;1.33;1.00;;;;;;;6.70;63.43;99582.87;5482568;32;34010;-68
2021/12/01 05:02:54;;;;;;;3.30;1.40;;;;;;;7.33;61.58;99589.19;5492592;32;34918;-65
2021/12/01 05:06:05;;;;;;;1.40;1.20;;;;;;;7.13;62.05;99594.34;5492790;32;35246;-64
2021/12/01 05:09:09;;;;;;;3.80;1.62;;;;;;;6.71;62.87;99588.94;5498058;32;33955;-64
2021/12/01 05:12:11;;;;;;;1.97;1.27;;;;;;;6.84;62.16;99605.88;5493730;32;35637;-64
2021/12/01 05:15:14;;;;;;;2.13;1.20;;;;;;;5.94;66.12;99611.59;5495941;32;34161;-65
2021/12/01 05:18:16;;;;;;;3.20;1.23;;;;;;;6.72;63.26;99607.16;5475981;32;34251;-65
2021/12/01 05:21:18;;;;;;;2.27;1.20;;;;;;;6.91;62.64;99601.28;5486232;32;34057;-67
2021/12/01 05:24:20;;;;;;;2.00;1.30;;;;;;;6.87;62.95;99613.59;5490576;32;35666;-69
2021/12/01 05:27:23;;;;;;;1.83;1.30;;;;;;;6.85;62.13;99631.09;5492896;32;34037;-68
2021/12/01 05:30:25;;;;;;;2.00;1.50;;;;;;;7.27;61.69;99633.03;5495378;32;33918;-69
2021/12/01 05:33:28;;;;;;;2.03;1.40;;;;;;;6.71;62.92;99647.25;5493038;32;34816;-65
2021/12/01 05:36:30;;;;;;;2.47;1.40;;;;;;;6.52;64.06;99664.47;5470566;32;34007;-65
2021/12/01 05:39:33;;;;;;;2.30;1.50;;;;;;;7.80;60.07;99667.59;5475581;32;33956;-65
2021/12/01 05:42:35;;;;;;;1.80;1.30;;;;;;;7.76;60.58;99675.63;5500374;32;33903;-68
2021/12/01 05:45:38;;;;;;;2.53;1.33;;;;;;;7.57;60.93;99678.94;5475749;32;33325;-68
2021/12/01 05:48:41;;;;;;;3.20;1.50;;;;;;;7.30;62.18;99680.81;5488206;32;35161;-69
2021/12/01 05:51:43;;;;;;;2.50;1.50;;;;;;;6.87;63.38;99694.56;5485232;32;35231;-66
2021/12/01 05:54:50;;;;;;;2.70;1.50;;;;;;;6.06;66.99;99705.13;5474547;32;35066;-68
2021/12/01 05:57:52;;;;;;;3.30;1.40;;;;;;;6.28;67.09;99702.66;5496471;32;33907;-67
2021/12/01 06:00:55;;;;;;;4.30;1.60;;;;;;;6.25;66.40;99705.38;5462236;32;35010;-66
2021/12/01 06:03:57;;;;;;;2.20;1.57;;;;;;;7.19;63.16;99706.50;5497710;32;35956;-69
2021/12/01 06:07:00;;;;;;;2.90;1.40;;;;;;;7.33;63.08;99706.84;5462929;32;33884;-69
2021/12/01 06:10:03;;;;;;;3.10;1.60;;;;;;;8.27;59.26;99711.09;5490649;32;33963;-69
2021/12/01 06:13:05;;;;;;;3.23;1.87;;;;;;;7.67;60.18;99715.22;5499828;32;34035;-70
2021/12/01 06:16:08;;;;;;;3.50;2.00;;;;;;;8.14;60.01;99721.22;5461804;32;34030;-66
2021/12/01 06:19:10;;;;;;;2.25;1.67;;;;;;;8.00;60.64;99721.75;5482317;32;35485;-69
2021/12/01 06:22:12;;;;;;;2.10;1.40;;;;;;;8.80;57.19;99727.25;5479440;32;34048;-65
2021/12/01 06:25:15;;;;;;;3.27;2.10;;;;;;;8.71;57.45;99732.91;5479485;32;33949;-65
2021/12/01 06:28:17;;;;;;;2.67;1.40;;;;;;;7.38;62.27;99740.66;5469482;32;33367;-64
2021/12/01 06:31:19;;;;;;;2.47;1.60;;;;;;;8.48;58.78;99752.16;5486929;32;34155;-65
2021/12/01 06:34:21;;;;;;;5.30;1.73;;;;;;;8.12;59.33;99757.09;5493411;32;33570;-70
2021/12/01 06:37:24;;;;;;;3.47;1.90;;;;;;;7.75;60.81;99757.63;5467964;32;34001;-66
2021/12/01 06:40:26;;;;;;;2.77;1.73;;;;;;;8.25;59.47;99762.69;5499358;32;33744;-64
2021/12/01 06:43:30;;;;;;;3.87;1.93;;;;;;;8.72;58.05;99763.41;5489863;32;34021;-75
2021/12/01 06:46:32;;;;;;;;;;;;;;;7.82;60.63;99770.41;5473194;32;35262;-70
2021/12/01 06:49:36;;;;;;;2.60;1.70;;;;;;;8.43;60.13;99774.22;5490158;32;34485;-78
2021/12/01 06:52:39;;;;;;;4.63;1.63;;;;;;;8.56;58.63;99775.41;5475291;32;32674;-66
2021/12/01 06:55:42;;;;;;;2.37;1.60;;;;;;;8.57;58.88;99769.28;5487032;32;34235;-63
2021/12/01 06:58:45;;;;;;;3.33;1.77;;;;;;;7.92;61.28;99772.66;5476544;32;35371;-67
2021/12/01 07:01:47;;;;;;;6.32;2.58;;;;;;;8.97;57.47;99772.87;5478383;32;34616;-67
2021/12/01 07:04:50;;;;;;;5.20;2.57;;;;;;;7.66;61.83;99776.25;5457631;32;34190;-65
2021/12/01 07:07:54;;;;;;;7.80;3.10;;;;;;;8.46;59.51;99779.34;5491906;32;34424;-82
2021/12/01 07:10:57;;;;;;;8.57;2.40;;;;;;;7.66;63.42;99782.34;5486767;32;33508;-78
2021/12/01 07:13:59;;;;;;;10.73;2.90;;;;;;;8.09;61.27;99775.50;5495701;32;34610;-64
2021/12/01 07:17:02;;;;;;;4.53;2.23;;;;;;;8.92;58.79;99773.06;5495687;32;35133;-65
2021/12/01 07:20:08;;;;;;;8.60;2.63;;;;;;;8.61;59.37;99786.56;5483837;32;34532;-71
2021/12/01 07:23:12;;;;;;;5.93;2.20;;;;;;;7.41;63.67;99781.56;5477281;32;34101;-67
2021/12/01 07:26:34;;;;;;;4.43;1.93;;;;;;;7.89;62.56;99773.66;5494538;32;33887;-72
2021/12/01 07:29:36;;;;;;;4.23;2.37;;;;;;;9.07;58.31;99771.56;5497979;32;35072;-76
2021/12/01 07:32:38;;;;;;;3.77;2.03;;;;;;;7.85;61.32;99767.66;5503894;32;34560;-74
2021/12/01 07:35:41;;;;;;;19.93;4.40;;;;;;;8.59;59.01;99752.59;5499009;32;34083;-68
2021/12/01 07:38:49;;;;;;;9.70;4.25;;;;;;;8.22;61.24;99741.84;5492179;32;35529;-77
2021/12/01 07:42:00;;;;;;;6.70;2.13;;;;;;;8.17;60.34;99722.84;5477927;32;33200;-75
2021/12/01 07:45:18;;;;;;;7.80;2.00;;;;;;;8.30;59.53;99726.69;5467885;32;35908;-68
2021/12/01 07:48:21;;;;;;;6.83;3.30;;;;;;;8.34;59.55;99742.22;5490686;32;34057;-70
2021/12/01 07:51:23;;;;;;;4.43;1.77;;;;;;;7.89;61.55;99747.50;5479896;32;35477;-74
2021/12/01 07:54:27;;;;;;;3.97;2.10;;;;;;;8.71;59.18;99759.09;5496136;32;33969;-73
2021/12/01 07:57:34;;;;;;;6.10;2.17;;;;;;;9.19;57.23;99753.53;5465918;32;34698;-70
2021/12/01 08:00:42;;;;;;;4.90;2.42;;;;;;;9.28;56.11;99751.44;5492789;32;34060;-72
2021/12/01 08:03:57;;;;;;;5.07;2.40;;;;;;;9.07;58.12;99750.56;5499629;32;33865;-71
2021/12/01 08:07:13;;;;;;;4.43;2.07;;;;;;;8.92;58.07;99767.81;5450677;32;33748;-81
2021/12/01 08:10:20;;;;;;;5.83;2.00;;;;;;;8.68;58.28;99759.19;5458284;32;34852;-80
2021/12/01 08:13:22;;;;;;;5.63;1.83;;;;;;;9.11;57.64;99757.41;5471353;32;34020;-70
2021/12/01 08:16:25;;;;;;;7.90;2.30;;;;;;;9.87;55.34;99751.38;5506623;32;35306;-71
2021/12/01 08:19:28;;;;;;;9.67;2.23;;;;;;;8.57;60.80;99746.56;5478182;32;34188;-72
2021/12/01 08:22:31;;;;;;;3.70;2.10;;;;;;;9.25;57.74;99738.44;5494873;32;33839;-67
2021/12/01 08:25:38;;;;;;;5.60;2.23;;;;;;;8.61;59.89;99731.56;5481774;32;34127;-79
2021/12/01 08:28:42;;;;;;;8.27;2.17;;;;;;;8.93;59.78;99727.59;5484389;32;32999;-78
2021/12/01 08:31:45;;;;;;;3.72;2.25;;;;;;;8.51;61.69;99725.00;5489823;32;34294;-75
2021/12/01 08:34:51;;;;;;;4.73;1.80;;;;;;;9.50;59.20;99715.47;5500918;32;32986;-76
2021/12/01 08:37:54;;;;;;;3.03;2.00;;;;;;;8.62;60.96;99718.37;5484650;32;34046;-63
2021/12/01 08:40:56;;;;;;;3.90;1.90;;;;;;;8.62;62.21;99721.00;5498170;32;34647;-63
2021/12/01 08:43:58;;;;;;;5.60;2.23;;;;;;;9.42;60.42;99712.34;5498195;32;34123;-71
2021/12/01 08:47:02;;;;;;;6.07;2.35;;;;;;;9.32;60.78;99713.66;5476702;32;33905;-69
2021/12/01 08:50:08;;;;;;;5.23;2.47;;;;;;;8.63;62.06;99730.59;5494120;32;34786;-80
2021/12/01 08:53:12;;;;;;;4.33;1.90;;;;;;;9.07;62.24;99730.47;5483733;32;32935;-75
2021/12/01 08:56:16;;;;;;;6.25;2.12;;;;;;;8.25;64.94;99741.75;5472379;32;33118;-83
2021/12/01 08:59:18;;;;;;;;;;;;;;;9.26;61.74;99738.38;5481488;32;35105;-73
2021/12/01 09:02:20;;;;;;;8.70;3.97;;;;;;;9.34;62.04;99743.28;5496246;32;35271;-79
2021/12/01 09:05:22;;;;;;;5.40;2.37;;;;;;;10.35;58.46;99738.62;5482355;32;33803;-68
2021/12/01 09:08:25;;;;;;;5.00;2.30;;;;;;;9.18;61.52;99741.34;5502914;32;35347;-69
2021/12/01 09:11:28;;;;;;;5.07;2.00;;;;;;;9.10;62.87;99748.69;5478850;32;34880;-69
2021/12/01 09:14:30;;;;;;;4.83;2.50;;;;;;;9.08;63.25;99732.19;5487195;32;33879;-67
2021/12/01 09:17:33;;;;;;;8.40;2.90;;;;;;;8.45;67.38;99728.72;5482469;32;35168;-74
2021/12/01 09:20:37;;;;;;;3.67;2.10;;;;;;;8.74;65.67;99717.03;5457196;32;34445;-82
2021/12/01 09:23:40;;;;;;;7.40;2.30;;;;;;;9.88;60.91;99726.81;5486336;32;33960;-78
2021/12/01 09:26:44;;;;;;;4.65;2.40;;;;;;;9.91;62.05;99718.78;5458367;32;33894;-84
2021/12/01 09:29:47;;;;;;;;;;;;;;;10.85;58.07;99707.22;5459326;32;33443;-79
2021/12/01 09:32:49;;;;;;;4.70;2.20;;;;;;;11.06;56.83;99705.28;5494801;32;35425;-73
2021/12/01 09:35:53;;;;;;;6.40;2.50;;;;;;;11.08;57.40;99699.03;5496898;32;34154;-76
2021/12/01 09:38:56;;;;;;;6.27;3.03;;;;;;;10.94;57.11;99698.84;5483925;32;32887;-79
2021/12/01 09:42:02;;;;;;;5.03;2.37;;;;;;;10.04;59.92;99692.81;5479840;32;32503;-74
2021/12/01 09:45:08;;;;;;;5.17;2.23;;;;;;;10.14;61.28;99680.94;5482385;32;34487;-65
2021/12/01 09:48:11;;;;;;;5.10;2.30;;;;;;;11.03;56.59;99680.00;5491940;32;33964;-77
2021/12/01 09:51:17;;;;;;;6.75;2.55;;;;;;;10.91;57.21;99690.28;5496215;32;35592;-63
2021/12/01 09:54:19;;;;;;;7.03;2.40;;;;;;;9.75;61.31;99692.41;5479671;32;37997;-68
2021/12/01 09:57:22;;;;;;;7.30;3.33;;;;;;;9.68;62.21;99685.75;5487256;32;34972;-84
2021/12/01 10:00:26;;;;;;;6.55;2.95;;;;;;;9.70;62.39;99676.03;5484522;32;34131;-69
2021/12/01 10:03:29;;;;;;;7.15;3.55;;;;;;;9.63;61.73;99660.66;5481192;32;35081;-69
2021/12/01 10:06:32;;;;;;;7.57;3.60;;;;;;;10.03;61.30;99654.34;5494223;32;34458;-74
2021/12/01 10:09:45;;;;;;;9.87;4.27;;;;;;;10.13;59.97;99662.66;5469151;32;35004;-64
2021/12/01 10:12:51;;;;;;;10.50;3.47;;;;;;;10.33;60.26;99669.59;5494226;32;34017;-72
2021/12/01 10:15:58;;;;;;;8.07;3.30;;;;;;;9.53;62.27;99668.09;5478173;32;36257;-77
2021/12/01 10:19:07;;;;;;;6.23;2.90;;;;;;;8.39;67.66;99653.03;5477894;32;35641;-69
2021/12/01 10:22:13;;;;;;;7.13;3.27;;;;;;;9.86;60.79;99643.84;5488115;32;34766;-70
2021/12/01 10:25:27;;;;;;;7.93;3.47;;;;;;;9.46;61.97;99654.41;5478776;32;34881;-69
2021/12/01 10:28:41;;;;;;;7.77;3.17;;;;;;;9.43;62.16;99664.19;5494049;32;34073;-65
2021/12/01 10:31:58;;;;;;;8.17;2.90;;;;;;;9.04;62.01;99667.69;5478301;32;33791;-66
2021/12/01 10:35:03;;;;;;;8.97;3.40;;;;;;;8.59;63.77;99655.66;5467229;32;33961;-68
2021/12/01 10:38:13;;;;;;;8.00;3.43;;;;;;;8.55;64.07;99663.72;5490060;32;34087;-62
2021/12/01 10:41:16;;;;;;;7.67;3.73;;;;;;;8.86;62.75;99663.25;5497947;32;34076;-59
2021/12/01 10:44:19;;;;;;;10.32;4.10;;;;;;;9.25;61.63;99651.91;5501100;32;34140;-63
2021/12/01 10:47:21;;;;;;;9.07;3.67;;;;;;;9.47;60.41;99655.28;5497604;32;35158;-64
2021/12/01 10:50:27;;;;;;;9.00;3.40;;;;;;;9.68;60.14;99658.66;5498234;32;34273;-68
2021/12/01 10:53:33;;;;;;;11.10;4.03;;;;;;;9.19;59.91;99655.66;5486421;32;35109;-63
2021/12/01 10:56:38;;;;;;;7.97;3.40;;;;;;;8.93;60.51;99664.69;5498877;32;35184;-74
2021/12/01 10:59:45;;;;;;;9.40;4.20;;;;;;;8.76;60.32;99647.09;5499323;32;32732;-70
2021/12/01 11:02:48;;;;;;;9.30;3.93;;;;;;;9.02;60.34;99648.56;5457545;32;35262;-68
2021/12/01 11:05:59;;;;;;;7.45;3.17;;;;;;;9.25;58.69;99633.56;5489179;32;36281;-70
2021/12/01 11:09:03;;;;;;;9.03;3.90;;;;;;;9.14;58.48;99627.03;5499689;32;34551;-73
2021/12/01 11:12:06;;;;;;;14.68;4.10;;;;;;;9.00;58.57;99634.66;5499420;32;34217;-69
2021/12/01 11:15:28;;;;;;;11.70;3.87;;;;;;;9.32;57.95;99634.97;5488046;32;35391;-74
2021/12/01 11:18:34;;;;;;;9.63;3.90;;;;;;;9.72;56.91;99628.72;5497288;32;34237;-71
2021/12/01 11:21:41;;;;;;;9.53;3.97;;;;;;;9.50;56.52;99618.41;5487066;32;33982;-70
2021/12/01 11:24:44;;;;;;;8.87;3.63;;;;;;;9.05;57.41;99606.47;5482675;32;34093;-79
2021/12/01 11:27:46;;;;;;;10.40;3.73;;;;;;;8.85;58.27;99607.38;5486295;32;35091;-71
2021/12/01 11:30:56;;;;;;;13.10;4.68;;;;;;;8.94;58.05;99598.25;5489840;32;34174;-80
2021/12/01 11:34:02;;;;;;;8.90;4.00;;;;;;;9.13;58.04;99583.38;5497612;32;34645;-73
2021/12/01 11:37:06;;;;;;;9.37;4.27;;;;;;;9.83;55.10;99579.19;5497469;32;34234;-75
2021/12/01 11:40:11;;;;;;;13.20;4.50;;;;;;;9.52;56.32;99573.72;5457585;32;33945;-64
2021/12/01 11:43:15;;;;;;;11.47;4.77;;;;;;;9.85;55.25;99555.50;5484010;32;34761;-63
2021/12/01 11:46:18;;;;;;;14.00;4.27;;;;;;;9.88;55.42;99550.97;5494899;32;35127;-70
2021/12/01 11:49:25;;;;;;;12.48;4.47;;;;;;;10.34;54.00;99538.16;5481674;32;34817;-70
2021/12/01 11:52:52;;;;;;;8.93;3.40;;;;;;;10.19;54.38;99536.31;5484915;32;33577;-68
2021/12/01 11:56:14;;;;;;;10.40;3.97;;;;;;;9.87;54.38;99532.66;5481612;32;35863;-68
2021/12/01 11:59:19;;;;;;;7.70;3.50;;;;;;;10.07;54.63;99519.41;5482507;32;33948;-68
2021/12/01 12:02:22;;;;;;;;;;;;;;;10.27;54.25;99516.62;5485456;32;34194;-69
2021/12/01 12:05:27;;;;;;;8.23;3.80;;;;;;;10.71;52.53;99507.34;5493789;32;34971;-70
2021/12/01 12:08:53;;;;;;;8.73;3.53;;;;;;;9.72;55.18;99500.16;5487944;32;35696;-68
2021/12/01 12:12:02;;;;;;;8.87;3.50;;;;;;;11.03;50.94;99495.09;5457404;32;33993;-74
2021/12/01 12:15:05;;;;;;;10.30;3.37;;;;;;;10.49;52.83;99492.69;5501704;32;34041;-81
2021/12/01 12:18:11;;;;;;;10.20;3.47;;;;;;;11.21;49.56;99483.53;5486197;32;35068;-70
2021/12/01 12:21:36;;;;;;;9.83;3.20;;;;;;;10.85;50.65;99476.75;5495800;32;35613;-71
2021/12/01 12:24:51;;;;;;;7.20;3.47;;;;;;;10.64;50.90;99469.19;5492513;32;34359;-71
2021/12/01 12:27:53;;;;;;;9.10;3.53;;;;;;;10.56;51.42;99461.69;5473235;32;33874;-70
2021/12/01 12:31:17;;;;;;;7.53;3.43;;;;;;;10.61;51.91;99467.56;5498565;32;34211;-70
2021/12/01 12:34:22;;;;;;;11.57;4.07;;;;;;;10.90;50.48;99468.63;5501260;32;32224;-72
2021/12/01 12:37:26;;;;;;;12.13;4.03;;;;;;;11.33;50.12;99459.19;5475463;32;34392;-69
2021/12/01 12:40:29;;;;;;;10.87;4.40;;;;;;;11.93;48.56;99459.22;5501043;32;33945;-70
2021/12/01 12:43:32;;;;;;;10.20;4.10;;;;;;;11.83;48.39;99454.56;5482581;32;34729;-72
2021/12/01 12:46:36;;;;;;;8.67;3.53;;;;;;;11.75;48.38;99444.47;5484248;32;33070;-72
2021/12/01 12:49:44;;;;;;;8.77;3.37;;;;;;;11.96;47.04;99449.44;5465222;32;38333;-71
2021/12/01 12:52:54;;;;;;;9.97;3.40;;;;;;;11.62;47.73;99441.69;5473558;32;33643;-70
2021/12/01 12:55:56;;;;;;;8.83;3.30;;;;;;;11.38;48.70;99449.22;5499930;32;33905;-72
2021/12/01 12:59:29;;;;;;;9.87;3.37;;;;;;;11.10;49.68;99428.06;5497005;32;35244;-68
2021/12/01 13:02:32;;;;;;;10.57;3.50;;;;;;;11.45;48.21;99431.31;5485084;32;33843;-69
2021/12/01 13:05:39;;;;;;;10.48;3.05;;;;;;;11.65;46.77;99425.72;5494847;32;34077;-70
2021/12/01 13:08:43;;;;;;;9.00;3.17;;;;;;;11.55;47.31;99424.59;5483758;32;34474;-72
2021/12/01 13:11:58;;;;;;;8.60;3.20;;;;;;;12.10;46.19;99425.75;5483664;32;34130;-81
2021/12/01 13:15:06;;;;;;;8.70;3.40;;;;;;;12.12;45.57;99418.62;5496607;32;33097;-70
2021/12/01 13:18:14;;;;;;;7.60;3.47;;;;;;;11.20;48.43;99426.59;5502471;32;35302;-68
2021/12/01 13:21:22;;;;;;;10.93;3.33;;;;;;;11.69;46.43;99410.59;5479473;32;33937;-70
2021/12/01 13:24:26;;;;;;;12.50;3.33;;;;;;;11.45;47.07;99412.03;5478261;32;33213;-73
2021/12/01 13:27:42;;;;;;;6.93;3.97;;;;;;;10.52;49.39;99410.25;5481155;32;35888;-73
2021/12/01 13:30:56;;;;;;;6.97;3.20;;;;;;;10.26;49.68;99425.62;5477642;32;34592;-74
2021/12/01 13:34:15;;;;;;;9.33;3.77;;;;;;;10.13;50.59;99424.56;5495732;32;34321;-79
2021/12/01 13:37:19;;;;;;;9.47;3.40;;;;;;;10.29;50.37;99416.75;5467819;32;35165;-72
2021/12/01 13:40:28;;;;;;;10.93;3.30;;;;;;;10.52;49.91;99402.38;5456946;32;34887;-68
2021/12/01 13:43:30;;;;;;;8.67;3.00;;;;;;;10.46;50.26;99406.19;5474791;32;34770;-75
2021/12/01 13:46:33;;;;;;;7.50;3.10;;;;;;;10.20;50.33;99420.69;5485001;32;33923;-74
2021/12/01 13:49:45;;;;;;;9.67;3.37;;;;;;;10.17;50.46;99409.47;5485891;32;34126;-67
2021/12/01 13:52:51;;;;;;;9.40;2.73;;;;;;;10.10;50.99;99403.69;5498011;32;33534;-71
2021/12/01 13:55:57;;;;;;;6.70;3.13;;;;;;;10.29;50.29;99393.94;5483042;32;34124;-72
2021/12/01 13:59:00;;;;;;;8.73;3.33;;;;;;;10.55;49.75;99394.31;5471222;32;35287;-78
2021/12/01 14:02:03;;;;;;;9.48;3.00;;;;;;;10.29;50.43;99390.47;5476871;32;33838;-68
2021/12/01 14:05:06;;;;;;;9.60;3.25;;;;;;;10.19;50.86;99402.38;5481430;32;35293;-71
2021/12/01 14:08:13;;;;;;;13.35;4.07;;;;;;;10.51;50.57;99396.28;5496640;32;35483;-84
2021/12/01 14:11:25;;;;;;;10.00;3.27;;;;;;;9.81;52.90;99396.50;5493295;32;36686;-77
2021/12/01 14:14:27;;;;;;;9.33;3.20;;;;;;;10.73;50.72;99392.47;5497471;32;35007;-74
2021/12/01 14:17:30;;;;;;;8.17;3.23;;;;;;;10.19;52.14;99392.72;5483902;32;34217;-73
2021/12/01 14:20:33;;;;;;;10.03;3.50;;;;;;;10.24;52.42;99388.12;5474098;32;33958;-69
2021/12/01 14:23:39;;;;;;;9.90;3.60;;;;;;;9.94;53.27;99389.69;5490449;32;35421;-70
2021/12/01 14:26:46;;;;;;;11.67;3.77;;;;;;;9.95;53.63;99383.50;5475215;32;33854;-69
2021/12/01 14:29:52;;;;;;;9.90;4.13;;;;;;;10.30;53.14;99384.28;5488912;32;35219;-73
2021/12/01 14:32:54;;;;;;;10.32;3.97;;;;;;;10.55;52.33;99370.66;5469566;32;35428;-72
2021/12/01 14:36:05;;;;;;;10.67;4.23;;;;;;;10.84;51.69;99366.44;5501175;32;34296;-70
2021/12/01 14:39:18;;;;;;;11.43;3.70;;;;;;;10.86;51.87;99364.56;5468244;32;35442;-68